createdAt,value
2017-09-19T00:00:35.897Z,11.62
2017-09-19T00:03:05.821Z,11.59
2017-09-19T00:05:34.735Z,11.59
2017-09-19T00:08:03.113Z,11.49
2017-09-19T00:10:31.477Z,11.49
2017-09-19T00:13:00.154Z,11.40
2017-09-19T00:15:29.262Z,11.45
2017-09-19T00:17:57.636Z,11.56
2017-09-19T00:20:26.427Z,11.68
2017-09-19T00:22:54.791Z,11.76
2017-09-19T00:25:23.933Z,11.83
2017-09-19T00:27:52.693Z,11.72
2017-09-19T00:30:21.037Z,11.73
2017-09-19T00:32:49.369Z,11.76
2017-09-19T00:35:18.057Z,11.80
2017-09-19T00:37:46.431Z,11.85
2017-09-19T00:40:14.775Z,11.79
2017-09-19T00:42:44.422Z,11.68
2017-09-19T00:45:12.796Z,11.60
2017-09-19T00:47:41.830Z,11.45
2017-09-19T00:50:11.466Z,11.48
2017-09-19T00:52:41.287Z,11.64
2017-09-19T00:55:09.622Z,11.60
2017-09-19T00:57:38.373Z,11.55
2017-09-19T01:00:06.731Z,11.45
2017-09-19T01:02:35.861Z,11.43
2017-09-19T01:05:04.620Z,11.67
2017-09-19T01:07:32.988Z,11.72
2017-09-19T01:10:02.104Z,11.76
2017-09-19T01:12:31.209Z,11.58
2017-09-19T01:14:59.580Z,11.53
2017-09-19T01:17:27.930Z,11.45
2017-09-19T01:19:56.548Z,11.42
2017-09-19T01:22:24.993Z,11.47
2017-09-19T01:24:53.341Z,11.42
2017-09-19T01:27:22.174Z,11.04
2017-09-19T01:29:50.511Z,11.16
2017-09-19T01:32:18.857Z,11.26
2017-09-19T01:34:48.063Z,11.11
2017-09-19T01:37:16.436Z,11.13
2017-09-19T01:39:44.782Z,10.92
2017-09-19T01:42:13.500Z,10.91
2017-09-19T01:44:41.871Z,11.07
2017-09-19T01:47:10.220Z,11.12
2017-09-19T01:49:38.901Z,11.23
2017-09-19T01:52:07.274Z,11.48
2017-09-19T01:54:36.258Z,11.48
2017-09-19T01:57:05.065Z,11.47
2017-09-19T01:59:33.411Z,11.28
2017-09-19T02:02:01.769Z,11.27
2017-09-19T02:04:30.417Z,11.11
2017-09-19T02:06:58.799Z,10.89
2017-09-19T02:09:27.918Z,11.04
2017-09-19T02:11:56.809Z,11.16
2017-09-19T02:14:25.163Z,11.36
2017-09-19T02:16:54.694Z,11.41
2017-09-19T02:19:23.582Z,11.20
2017-09-19T02:21:51.942Z,11.09
2017-09-19T02:24:21.056Z,10.97
2017-09-19T02:26:50.073Z,10.95
2017-09-19T02:29:18.440Z,10.93
2017-09-19T02:31:47.561Z,10.81
2017-09-19T02:34:16.234Z,10.87
2017-09-19T02:36:44.886Z,10.68
2017-09-19T02:39:13.997Z,10.70
2017-09-19T02:41:44.229Z,10.40
2017-09-19T02:44:12.575Z,10.18
2017-09-19T02:46:41.702Z,10.31
2017-09-19T02:49:10.356Z,10.42
2017-09-19T02:51:38.708Z,10.57
2017-09-19T02:54:07.067Z,10.55
2017-09-19T02:56:35.924Z,10.34
2017-09-19T02:59:04.274Z,10.16
2017-09-19T03:01:33.360Z,10.11
2017-09-19T03:04:02.944Z,10.16
2017-09-19T03:06:31.288Z,10.03
2017-09-19T03:08:59.638Z,10.13
2017-09-19T03:11:28.324Z,10.23
2017-09-19T03:13:56.668Z,10.25
2017-09-19T03:16:25.018Z,10.16
2017-09-19T03:18:53.677Z,9.91
2017-09-19T03:21:22.040Z,10.13
2017-09-19T03:23:50.419Z,10.14
2017-09-19T03:26:19.391Z,10.17
2017-09-19T03:28:47.778Z,10.08
2017-09-19T03:31:16.131Z,10.39
2017-09-19T03:33:44.778Z,10.59
2017-09-19T03:36:13.136Z,10.71
2017-09-19T03:38:41.490Z,10.92
2017-09-19T03:41:10.243Z,11.02
2017-09-19T03:43:38.583Z,10.85
2017-09-19T03:46:08.517Z,10.68
2017-09-19T03:48:38.364Z,10.57
2017-09-19T03:51:07.514Z,10.60
2017-09-19T03:53:35.869Z,10.53
2017-09-19T03:56:04.805Z,10.46
2017-09-19T03:58:33.164Z,10.67
2017-09-19T04:01:02.282Z,10.75
2017-09-19T04:03:31.057Z,10.67
2017-09-19T04:05:59.400Z,10.73
2017-09-19T04:08:27.753Z,10.72
2017-09-19T04:10:56.925Z,10.59
2017-09-19T04:13:26.038Z,10.37
2017-09-19T04:15:54.395Z,10.61
2017-09-19T04:18:23.799Z,10.81
2017-09-19T04:20:52.137Z,10.59
2017-09-19T04:23:20.498Z,10.71
2017-09-19T04:25:49.503Z,10.63
2017-09-19T04:28:18.108Z,10.52
2017-09-19T04:30:46.465Z,10.45
2017-09-19T04:33:15.709Z,10.59
2017-09-19T04:35:45.726Z,10.60
2017-09-19T04:38:14.091Z,10.54
2017-09-19T04:40:42.732Z,10.38
2017-09-19T04:43:11.061Z,10.37
2017-09-19T04:45:39.419Z,10.40
2017-09-19T04:48:08.483Z,10.55
2017-09-19T04:50:37.724Z,10.72
2017-09-19T04:53:06.067Z,10.94
2017-09-19T04:55:34.966Z,10.97
2017-09-19T04:58:03.327Z,10.96
2017-09-19T05:00:31.742Z,10.97
2017-09-19T05:03:00.445Z,10.70
2017-09-19T05:05:28.798Z,10.89
2017-09-19T05:07:57.138Z,10.96
2017-09-19T05:10:25.751Z,10.94
2017-09-19T05:12:54.103Z,11.18
2017-09-19T05:15:22.439Z,11.34
2017-09-19T05:17:51.306Z,11.44
2017-09-19T05:20:19.676Z,11.44
2017-09-19T05:22:48.029Z,11.52
2017-09-19T05:25:16.918Z,11.60
2017-09-19T05:27:45.275Z,11.74
2017-09-19T05:30:14.386Z,11.77
2017-09-19T05:32:43.825Z,11.65
2017-09-19T05:35:12.171Z,11.79
2017-09-19T05:37:41.263Z,12.08
2017-09-19T05:40:11.084Z,12.21
2017-09-19T05:42:39.453Z,12.34
2017-09-19T05:45:07.823Z,12.20
2017-09-19T05:47:36.739Z,12.17
2017-09-19T05:50:05.117Z,12.34
2017-09-19T05:52:33.458Z,12.40
2017-09-19T05:55:03.134Z,12.41
2017-09-19T05:57:31.480Z,12.36
2017-09-19T05:59:59.859Z,12.31
2017-09-19T06:02:29.339Z,12.21
2017-09-19T06:04:58.458Z,12.22
2017-09-19T06:07:26.785Z,12.29
2017-09-19T06:09:56.142Z,12.34
2017-09-19T06:12:24.501Z,12.41
2017-09-19T06:14:53.639Z,12.45
2017-09-19T06:17:22.367Z,12.37
2017-09-19T06:19:50.752Z,12.35
2017-09-19T06:22:19.139Z,12.20
2017-09-19T06:24:48.465Z,12.14
2017-09-19T06:27:16.810Z,12.32
2017-09-19T06:29:45.165Z,12.63
2017-09-19T06:32:13.868Z,12.69
2017-09-19T06:34:42.306Z,12.82
2017-09-19T06:37:10.677Z,12.56
2017-09-19T06:39:39.383Z,12.66
2017-09-19T06:42:07.735Z,12.88
2017-09-19T06:44:36.936Z,13.05
2017-09-19T06:47:06.863Z,13.24
2017-09-19T06:49:35.247Z,13.44
2017-09-19T06:52:03.698Z,13.72
2017-09-19T06:54:33.229Z,13.74
2017-09-19T06:57:01.589Z,13.86
2017-09-19T06:59:29.986Z,14.19
2017-09-19T07:01:58.850Z,14.64
2017-09-19T07:04:28.021Z,14.74
2017-09-19T07:06:56.390Z,14.93
2017-09-19T07:09:25.396Z,15.15
2017-09-19T07:11:53.775Z,15.46
2017-09-19T07:14:22.779Z,15.63
2017-09-19T07:16:51.556Z,15.78
2017-09-19T07:19:19.974Z,15.50
2017-09-19T07:21:48.424Z,15.13
2017-09-19T07:24:17.346Z,14.81
2017-09-19T07:26:45.754Z,15.33
2017-09-19T07:29:14.887Z,15.56
2017-09-19T07:31:43.897Z,15.45
2017-09-19T07:34:12.286Z,15.91
2017-09-19T07:36:41.889Z,16.24
2017-09-19T07:39:10.505Z,16.27
2017-09-19T07:41:39.289Z,16.72
2017-09-19T07:44:07.649Z,17.25
2017-09-19T07:46:36.359Z,17.44
2017-09-19T07:49:04.772Z,17.72
2017-09-19T07:51:33.193Z,18.00
2017-09-19T07:54:02.447Z,18.37
2017-09-19T07:56:30.802Z,18.64
2017-09-19T07:58:59.145Z,18.76
2017-09-19T08:01:28.614Z,18.61
2017-09-19T08:03:56.952Z,18.35
2017-09-19T08:06:25.364Z,18.50
2017-09-19T08:08:54.194Z,18.75
2017-09-19T08:11:22.547Z,19.40
2017-09-19T08:13:50.926Z,19.55
2017-09-19T08:16:20.010Z,19.49
2017-09-19T08:18:48.375Z,20.22
2017-09-19T08:21:16.729Z,20.90
2017-09-19T08:23:45.357Z,20.94
2017-09-19T08:26:13.743Z,21.09
2017-09-19T08:28:42.110Z,21.72
2017-09-19T08:31:11.708Z,22.26
2017-09-19T08:33:40.053Z,22.47
2017-09-19T08:36:09.180Z,22.85
2017-09-19T08:38:38.063Z,22.56
2017-09-19T08:41:06.536Z,23.36
2017-09-19T08:43:34.886Z,24.56
2017-09-19T08:46:03.859Z,25.86
2017-09-19T08:48:32.209Z,26.66
2017-09-19T08:51:00.576Z,27.55
2017-09-19T08:53:29.358Z,28.82
2017-09-19T08:55:57.715Z,29.12
2017-09-19T08:58:26.040Z,28.53
2017-09-19T09:00:54.914Z,30.05
2017-09-19T09:03:23.500Z,30.40
2017-09-19T09:05:51.829Z,31.02
2017-09-19T09:08:20.559Z,30.89
2017-09-19T09:10:48.924Z,31.14
2017-09-19T09:13:18.060Z,31.31
2017-09-19T09:15:46.983Z,31.16
2017-09-19T09:18:15.339Z,32.68
2017-09-19T09:20:44.508Z,32.30
2017-09-19T09:23:13.597Z,31.05
2017-09-19T09:25:41.957Z,29.39
2017-09-19T09:28:11.092Z,30.48
2017-09-19T09:30:39.775Z,30.26
2017-09-19T09:33:08.160Z,29.77
2017-09-19T09:35:36.522Z,29.42
2017-09-19T09:38:05.305Z,28.81
2017-09-19T09:40:33.677Z,28.83
2017-09-19T09:43:03.013Z,28.96
2017-09-19T09:45:31.789Z,28.34
2017-09-19T09:48:00.971Z,29.34
2017-09-19T09:50:29.346Z,30.33
2017-09-19T09:52:58.864Z,29.92
2017-09-19T09:55:27.247Z,30.15
2017-09-19T09:57:55.615Z,30.07
2017-09-19T10:00:24.510Z,29.69
2017-09-19T10:02:52.853Z,29.40
2017-09-19T10:05:21.230Z,30.47
2017-09-19T10:07:50.266Z,31.10
2017-09-19T10:10:18.627Z,31.63
2017-09-19T10:12:47.767Z,32.64
2017-09-19T10:15:16.541Z,31.97
2017-09-19T10:17:44.896Z,30.87
2017-09-19T10:20:14.034Z,30.92
2017-09-19T10:22:43.422Z,31.29
2017-09-19T10:25:11.816Z,28.26
2017-09-19T10:27:40.187Z,28.31
2017-09-19T10:30:09.659Z,27.29
2017-09-19T10:32:38.773Z,26.63
2017-09-19T10:35:07.163Z,25.70
2017-09-19T10:37:36.112Z,27.66
2017-09-19T10:40:05.256Z,28.94
2017-09-19T10:42:33.702Z,29.31
2017-09-19T10:45:02.598Z,29.02
2017-09-19T10:47:30.983Z,29.41
2017-09-19T10:50:00.121Z,30.32
2017-09-19T10:52:29.270Z,29.48
2017-09-19T10:54:57.615Z,30.34
2017-09-19T10:57:26.886Z,31.50
2017-09-19T10:59:55.794Z,31.60
2017-09-19T11:02:24.170Z,31.63
2017-09-19T11:04:52.532Z,32.69
2017-09-19T11:07:21.235Z,32.50
2017-09-19T11:09:49.575Z,33.20
2017-09-19T11:12:17.954Z,33.15
2017-09-19T11:14:47.069Z,32.97
2017-09-19T11:17:15.668Z,33.81
2017-09-19T11:19:43.995Z,34.36
2017-09-19T11:22:12.887Z,33.32
2017-09-19T11:24:42.239Z,32.21
2017-09-19T11:27:10.585Z,30.60
2017-09-19T11:29:40.204Z,28.82
2017-09-19T11:32:08.565Z,27.61
2017-09-19T11:34:36.932Z,26.22
2017-09-19T11:37:06.909Z,26.03
2017-09-19T11:39:35.251Z,27.18
2017-09-19T11:42:04.790Z,28.46
2017-09-19T11:44:33.518Z,29.43
2017-09-19T11:47:02.767Z,30.23
2017-09-19T11:49:31.124Z,30.80
2017-09-19T11:51:59.840Z,32.45
2017-09-19T11:54:28.187Z,33.45
2017-09-19T11:56:56.553Z,32.97
2017-09-19T11:59:25.282Z,33.55
2017-09-19T12:01:53.652Z,34.06
2017-09-19T12:04:22.030Z,33.52
2017-09-19T12:06:50.896Z,34.34
2017-09-19T12:09:19.249Z,35.23
2017-09-19T12:11:48.367Z,34.72
2017-09-19T12:14:17.321Z,35.97
2017-09-19T12:16:45.703Z,36.47
2017-09-19T12:19:14.187Z,36.41
2017-09-19T12:21:42.880Z,36.29
2017-09-19T12:24:11.233Z,36.13
2017-09-19T12:26:39.574Z,35.30
2017-09-19T12:29:08.288Z,33.67
2017-09-19T12:31:36.820Z,31.36
2017-09-19T12:34:05.964Z,31.51
2017-09-19T12:36:34.725Z,32.58
2017-09-19T12:39:03.273Z,33.23
2017-09-19T12:41:31.615Z,33.99
2017-09-19T12:44:00.401Z,33.07
2017-09-19T12:46:28.783Z,33.00
2017-09-19T12:48:57.149Z,33.85
2017-09-19T12:51:26.035Z,34.61
2017-09-19T12:53:54.390Z,33.79
2017-09-19T12:56:23.496Z,32.48
2017-09-19T12:58:52.314Z,32.05
2017-09-19T13:01:20.654Z,31.01
2017-09-19T13:03:50.707Z,30.67
2017-09-19T13:06:19.865Z,31.21
2017-09-19T13:08:49.805Z,32.41
2017-09-19T13:11:18.225Z,33.53
2017-09-19T13:13:47.094Z,35.19
2017-09-19T13:16:15.464Z,35.70
2017-09-19T13:18:43.815Z,35.14
2017-09-19T13:21:13.251Z,35.27
2017-09-19T13:23:41.634Z,35.71
2017-09-19T13:26:10.000Z,36.23
2017-09-19T13:28:38.977Z,36.59
2017-09-19T13:31:25.643Z,37.02
2017-09-19T13:33:54.366Z,36.97
2017-09-19T13:36:22.784Z,36.85
2017-09-19T13:38:51.185Z,38.11
2017-09-19T13:41:20.044Z,37.29
2017-09-19T13:43:49.088Z,37.04
2017-09-19T13:46:17.493Z,36.92
2017-09-19T13:48:47.326Z,36.53
2017-09-19T13:51:15.796Z,36.51
2017-09-19T13:53:44.158Z,36.77
2017-09-19T13:56:13.001Z,36.24
2017-09-19T13:58:41.360Z,35.26
2017-09-19T14:01:10.325Z,34.49
2017-09-19T14:03:39.112Z,33.62
2017-09-19T14:06:08.409Z,32.97
2017-09-19T14:08:37.598Z,32.26
2017-09-19T14:11:06.867Z,31.14
2017-09-19T14:13:35.254Z,30.01
2017-09-19T14:16:03.640Z,30.64
2017-09-19T14:18:32.408Z,32.00
2017-09-19T14:21:00.782Z,32.57
2017-09-19T14:23:29.198Z,32.82
2017-09-19T14:25:57.898Z,32.67
2017-09-19T14:28:26.848Z,31.85
2017-09-19T14:30:55.275Z,30.70
2017-09-19T14:33:25.122Z,31.16
2017-09-19T14:35:53.500Z,32.08
2017-09-19T14:38:21.842Z,31.07
2017-09-19T14:40:51.523Z,30.03
2017-09-19T14:43:19.881Z,30.01
2017-09-19T14:45:48.273Z,29.84
2017-09-19T14:48:17.268Z,29.49
2017-09-19T14:50:46.503Z,28.83
2017-09-19T14:53:14.934Z,27.51
2017-09-19T14:55:43.925Z,26.92
2017-09-19T14:58:12.270Z,26.47
2017-09-19T15:00:42.014Z,27.00
2017-09-19T15:03:10.902Z,26.92
2017-09-19T15:05:39.380Z,26.27
2017-09-19T15:08:07.884Z,25.60
2017-09-19T15:10:36.645Z,25.37
2017-09-19T15:13:05.109Z,25.48
2017-09-19T15:15:34.318Z,25.47
2017-09-19T15:18:04.067Z,25.60
2017-09-19T15:20:32.507Z,25.67
2017-09-19T15:23:01.856Z,25.93
2017-09-19T15:25:30.751Z,25.76
2017-09-19T15:27:59.181Z,26.19
2017-09-19T15:30:27.592Z,26.08
2017-09-19T15:32:56.491Z,26.07
2017-09-19T15:35:24.982Z,26.42
2017-09-19T15:37:54.312Z,26.50
2017-09-19T15:40:23.848Z,26.22
2017-09-19T15:42:52.335Z,25.85
2017-09-19T15:45:20.817Z,25.74
2017-09-19T15:47:49.655Z,25.87
2017-09-19T15:50:18.108Z,25.41
2017-09-19T15:52:46.514Z,25.28
2017-09-19T15:55:15.463Z,24.58
2017-09-19T15:57:43.946Z,24.63
2017-09-19T16:00:12.376Z,24.29
2017-09-19T16:02:41.413Z,23.94
2017-09-19T16:05:09.779Z,23.74
2017-09-19T16:07:38.199Z,23.19
2017-09-19T16:10:06.847Z,22.91
2017-09-19T16:12:35.991Z,22.79
2017-09-19T16:15:04.356Z,22.61
2017-09-19T16:17:33.070Z,22.42
2017-09-19T16:20:01.525Z,22.21
2017-09-19T16:22:29.918Z,21.86
2017-09-19T16:24:58.717Z,21.79
2017-09-19T16:27:27.093Z,21.50
2017-09-19T16:29:55.532Z,21.32
2017-09-19T16:32:24.931Z,21.22
2017-09-19T16:34:54.207Z,21.14
2017-09-19T16:37:22.571Z,21.16
2017-09-19T16:39:51.240Z,21.00
2017-09-19T16:42:19.872Z,20.96
2017-09-19T16:44:48.308Z,20.78
2017-09-19T16:47:18.258Z,20.59
2017-09-19T16:49:47.397Z,20.60
2017-09-19T16:52:16.334Z,20.33
2017-09-19T16:54:45.172Z,20.30
2017-09-19T16:57:13.538Z,20.41
2017-09-19T16:59:42.672Z,20.18
2017-09-19T17:02:11.393Z,20.24
2017-09-19T17:04:39.778Z,20.06
2017-09-19T17:07:08.904Z,19.98
2017-09-19T17:09:37.661Z,19.85
2017-09-19T17:12:06.037Z,19.86
2017-09-19T17:14:34.399Z,19.92
2017-09-19T17:17:03.819Z,19.87
2017-09-19T17:19:32.191Z,19.73
2017-09-19T17:22:00.567Z,19.64
2017-09-19T17:24:30.035Z,19.67
2017-09-19T17:26:58.395Z,19.54
2017-09-19T17:29:26.791Z,19.53
2017-09-19T17:31:55.603Z,19.45
2017-09-19T17:34:23.987Z,19.46
2017-09-19T17:36:52.354Z,19.46
2017-09-19T17:39:21.031Z,19.28
2017-09-19T17:41:49.403Z,19.39
2017-09-19T17:44:17.755Z,19.34
2017-09-19T17:46:47.150Z,19.23
2017-09-19T17:49:15.511Z,19.21
2017-09-19T17:51:43.876Z,18.94
2017-09-19T17:54:13.030Z,19.24
2017-09-19T17:56:41.424Z,19.05
2017-09-19T17:59:09.810Z,18.99
2017-09-19T18:01:38.460Z,19.01
2017-09-19T18:04:06.843Z,18.83
2017-09-19T18:06:35.206Z,18.87
2017-09-19T18:09:04.592Z,18.87
2017-09-19T18:11:33.776Z,18.67
2017-09-19T18:14:02.169Z,18.63
2017-09-19T18:16:31.012Z,18.50
2017-09-19T18:18:59.391Z,18.30
2017-09-19T18:21:27.752Z,18.24
2017-09-19T18:23:57.228Z,18.24
2017-09-19T18:26:25.796Z,18.26
2017-09-19T18:28:54.175Z,18.25
2017-09-19T18:31:22.807Z,18.14
2017-09-19T18:33:51.940Z,18.01
2017-09-19T18:36:20.364Z,17.87
2017-09-19T18:38:49.082Z,17.90
2017-09-19T18:41:17.434Z,17.87
2017-09-19T18:43:45.777Z,17.89
2017-09-19T18:46:14.436Z,17.74
2017-09-19T18:48:42.799Z,17.83
2017-09-19T18:51:11.173Z,17.94
2017-09-19T18:53:40.698Z,17.69
2017-09-19T18:56:09.067Z,17.76
2017-09-19T18:58:37.414Z,17.74
2017-09-19T19:01:06.990Z,17.84
2017-09-19T19:03:35.368Z,17.79
2017-09-19T19:06:03.739Z,17.94
2017-09-19T19:08:33.242Z,17.95
2017-09-19T19:11:01.623Z,17.99
2017-09-19T19:13:29.993Z,17.78
2017-09-19T19:15:58.878Z,17.86
2017-09-19T19:18:27.248Z,17.78
2017-09-19T19:20:55.649Z,17.86
2017-09-19T19:23:24.579Z,17.82
2017-09-19T19:25:52.950Z,17.81
2017-09-19T19:28:21.298Z,17.74
2017-09-19T19:30:50.157Z,17.58
2017-09-19T19:33:18.525Z,17.47
2017-09-19T19:35:48.086Z,17.60
2017-09-19T19:38:17.955Z,17.65
2017-09-19T19:40:47.113Z,17.74
2017-09-19T19:43:15.499Z,17.61
2017-09-19T19:45:44.389Z,17.46
2017-09-19T19:48:12.791Z,17.39
2017-09-19T19:50:41.170Z,17.53
2017-09-19T19:53:10.819Z,17.38
2017-09-19T19:55:39.184Z,17.25
2017-09-19T19:58:08.429Z,17.37
2017-09-19T20:00:37.147Z,17.28
2017-09-19T20:03:06.296Z,17.20
2017-09-19T20:05:34.686Z,17.08
2017-09-19T20:08:03.724Z,17.14
2017-09-19T20:10:32.271Z,17.26
2017-09-19T20:13:00.831Z,17.02
2017-09-19T20:15:29.592Z,17.16
2017-09-19T20:17:57.974Z,17.13
2017-09-19T20:20:26.311Z,17.11
2017-09-19T20:22:54.971Z,17.11
2017-09-19T20:25:23.414Z,17.07
2017-09-19T20:27:52.106Z,17.07
2017-09-19T20:30:20.917Z,17.20
2017-09-19T20:32:49.301Z,17.16
2017-09-19T20:35:17.738Z,16.94
2017-09-19T20:37:47.150Z,16.72
2017-09-19T20:40:15.590Z,16.91
2017-09-19T20:42:43.957Z,16.92
2017-09-19T20:45:12.856Z,16.77
2017-09-19T20:47:41.199Z,16.62
2017-09-19T20:50:09.563Z,16.66
2017-09-19T20:52:38.461Z,16.63
2017-09-19T20:55:06.846Z,16.46
2017-09-19T20:57:35.203Z,16.40
2017-09-19T21:00:04.703Z,16.21
2017-09-19T21:02:34.510Z,16.19
2017-09-19T21:05:09.693Z,16.29
2017-09-19T21:07:43.684Z,16.20
2017-09-19T21:10:18.123Z,16.09
2017-09-19T21:12:52.967Z,16.14
2017-09-19T21:15:27.176Z,16.05
2017-09-19T21:18:00.902Z,16.18
2017-09-19T21:20:29.583Z,16.10
2017-09-19T21:22:57.951Z,16.14
2017-09-19T21:25:26.305Z,16.18
2017-09-19T21:27:55.550Z,16.27
2017-09-19T21:30:23.915Z,16.26
2017-09-19T21:32:52.288Z,16.28
2017-09-19T21:35:21.177Z,15.87
2017-09-19T21:37:49.559Z,16.08
2017-09-19T21:40:17.934Z,16.06
2017-09-19T21:42:46.826Z,16.23
2017-09-19T21:45:15.207Z,16.39
2017-09-19T21:47:43.584Z,16.46
2017-09-19T21:50:12.326Z,16.26
2017-09-19T21:52:41.429Z,16.28
2017-09-19T21:55:10.572Z,16.21
2017-09-19T21:57:39.211Z,16.17
2017-09-19T22:00:08.346Z,16.22
2017-09-19T22:02:36.702Z,16.29
2017-09-19T22:05:05.609Z,16.40
2017-09-19T22:07:33.971Z,16.40
2017-09-19T22:10:02.365Z,16.42
2017-09-19T22:12:31.183Z,16.50
2017-09-19T22:14:59.748Z,16.38
2017-09-19T22:17:28.118Z,16.47
2017-09-19T22:19:56.895Z,16.58
2017-09-19T22:22:25.266Z,16.53
2017-09-19T22:24:53.658Z,16.51
2017-09-19T22:27:22.413Z,16.48
2017-09-19T22:29:51.104Z,16.46
2017-09-19T22:32:19.443Z,16.26
2017-09-19T22:34:48.411Z,16.28
2017-09-19T22:37:16.771Z,16.36
2017-09-19T22:39:45.886Z,16.46
2017-09-19T22:42:14.578Z,16.40
2017-09-19T22:44:42.926Z,16.48
2017-09-19T22:47:11.557Z,16.08
2017-09-19T22:49:40.343Z,16.06
2017-09-19T22:52:08.695Z,16.08
2017-09-19T22:54:37.066Z,16.21
2017-09-19T22:57:05.925Z,16.38
2017-09-19T22:59:34.291Z,16.34
2017-09-19T23:02:02.640Z,16.22
2017-09-19T23:04:32.226Z,16.35
2017-09-19T23:07:00.601Z,16.44
2017-09-19T23:09:29.795Z,16.41
2017-09-19T23:11:58.694Z,16.15
2017-09-19T23:14:27.090Z,16.14
2017-09-19T23:16:55.442Z,16.10
2017-09-19T23:19:25.150Z,16.06
2017-09-19T23:21:54.276Z,16.21
2017-09-19T23:24:22.668Z,16.24
2017-09-19T23:26:51.319Z,16.32
2017-09-19T23:29:20.479Z,16.11
2017-09-19T23:31:49.331Z,15.96
2017-09-19T23:34:17.967Z,16.02
2017-09-19T23:36:46.301Z,15.86
2017-09-19T23:39:14.732Z,15.85
2017-09-19T23:41:43.577Z,15.89
2017-09-19T23:44:12.748Z,15.77
2017-09-19T23:46:41.857Z,15.83
2017-09-19T23:49:10.852Z,15.83
2017-09-19T23:51:39.228Z,15.47
2017-09-19T23:54:07.588Z,15.61
2017-09-19T23:56:36.231Z,15.78
2017-09-19T23:59:04.587Z,15.82
